sensor_id;sensor_type;location;lat;lon;timestamp;P1;durP1;ratioP1;P2;durP2;ratioP2
21128;SDS011;10722;51.910;8.352;2023-12-22T00:00:50;31.10;;;4.90;;
21128;SDS011;10722;51.910;8.352;2023-12-22T00:03:36;34.67;;;5.70;;
21128;SDS011;10722;51.910;8.352;2023-12-22T00:06:21;34.20;;;4.77;;
21128;SDS011;10722;51.910;8.352;2023-12-22T00:09:06;32.77;;;4.83;;
21128;SDS011;10722;51.910;8.352;2023-12-22T00:11:51;32.73;;;5.80;;
21128;SDS011;10722;51.910;8.352;2023-12-22T00:14:36;36.90;;;5.90;;
21128;SDS011;10722;51.910;8.352;2023-12-22T00:17:21;34.63;;;5.03;;
21128;SDS011;10722;51.910;8.352;2023-12-22T00:20:06;29.00;;;5.00;;
21128;SDS011;10722;51.910;8.352;2023-12-22T00:22:51;31.23;;;4.83;;
21128;SDS011;10722;51.910;8.352;2023-12-22T00:25:36;37.20;;;5.77;;
21128;SDS011;10722;51.910;8.352;2023-12-22T00:28:22;36.53;;;5.53;;
21128;SDS011;10722;51.910;8.352;2023-12-22T00:31:07;34.87;;;4.93;;
21128;SDS011;10722;51.910;8.352;2023-12-22T00:33:52;28.50;;;4.70;;
21128;SDS011;10722;51.910;8.352;2023-12-22T00:36:37;33.87;;;4.80;;
21128;SDS011;10722;51.910;8.352;2023-12-22T00:39:22;27.60;;;4.60;;
21128;SDS011;10722;51.910;8.352;2023-12-22T00:42:07;29.13;;;5.33;;
21128;SDS011;10722;51.910;8.352;2023-12-22T00:44:52;33.57;;;4.70;;
21128;SDS011;10722;51.910;8.352;2023-12-22T00:47:37;33.77;;;4.47;;
21128;SDS011;10722;51.910;8.352;2023-12-22T00:50:22;33.50;;;4.87;;
21128;SDS011;10722;51.910;8.352;2023-12-22T00:53:07;27.00;;;4.40;;
21128;SDS011;10722;51.910;8.352;2023-12-22T00:55:53;32.93;;;4.83;;
21128;SDS011;10722;51.910;8.352;2023-12-22T00:58:39;33.03;;;4.90;;
21128;SDS011;10722;51.910;8.352;2023-12-22T01:01:24;24.03;;;3.87;;
21128;SDS011;10722;51.910;8.352;2023-12-22T01:04:10;27.07;;;3.83;;
21128;SDS011;10722;51.910;8.352;2023-12-22T01:06:55;28.47;;;5.10;;
21128;SDS011;10722;51.910;8.352;2023-12-22T01:09:40;33.27;;;4.87;;
21128;SDS011;10722;51.910;8.352;2023-12-22T01:12:27;28.20;;;5.00;;
21128;SDS011;10722;51.910;8.352;2023-12-22T01:15:13;22.80;;;3.97;;
21128;SDS011;10722;51.910;8.352;2023-12-22T01:17:58;24.37;;;3.80;;
21128;SDS011;10722;51.910;8.352;2023-12-22T01:20:43;28.50;;;4.83;;
21128;SDS011;10722;51.910;8.352;2023-12-22T01:23:27;36.93;;;4.37;;
21128;SDS011;10722;51.910;8.352;2023-12-22T01:26:12;25.37;;;3.60;;
21128;SDS011;10722;51.910;8.352;2023-12-22T01:28:57;29.43;;;4.80;;
21128;SDS011;10722;51.910;8.352;2023-12-22T01:31:42;29.30;;;4.30;;
21128;SDS011;10722;51.910;8.352;2023-12-22T01:34:28;24.60;;;3.67;;
21128;SDS011;10722;51.910;8.352;2023-12-22T01:37:13;28.53;;;4.00;;
21128;SDS011;10722;51.910;8.352;2023-12-22T01:39:58;26.83;;;4.10;;
21128;SDS011;10722;51.910;8.352;2023-12-22T01:42:42;26.63;;;4.53;;
21128;SDS011;10722;51.910;8.352;2023-12-22T01:45:27;25.93;;;4.23;;
21128;SDS011;10722;51.910;8.352;2023-12-22T01:48:12;25.90;;;4.17;;
21128;SDS011;10722;51.910;8.352;2023-12-22T01:50:58;24.63;;;3.80;;
21128;SDS011;10722;51.910;8.352;2023-12-22T01:53:44;23.93;;;3.60;;
21128;SDS011;10722;51.910;8.352;2023-12-22T01:56:30;25.97;;;3.70;;
21128;SDS011;10722;51.910;8.352;2023-12-22T01:59:16;23.93;;;3.47;;
21128;SDS011;10722;51.910;8.352;2023-12-22T02:02:02;23.60;;;3.67;;
21128;SDS011;10722;51.910;8.352;2023-12-22T02:04:47;25.77;;;3.43;;
21128;SDS011;10722;51.910;8.352;2023-12-22T02:07:33;27.30;;;4.20;;
21128;SDS011;10722;51.910;8.352;2023-12-22T02:10:18;31.80;;;3.63;;
21128;SDS011;10722;51.910;8.352;2023-12-22T02:13:03;24.37;;;3.83;;
21128;SDS011;10722;51.910;8.352;2023-12-22T02:16:03;35.03;;;4.63;;
21128;SDS011;10722;51.910;8.352;2023-12-22T02:18:52;29.40;;;4.43;;
21128;SDS011;10722;51.910;8.352;2023-12-22T02:24:53;27.33;;;4.20;;
21128;SDS011;10722;51.910;8.352;2023-12-22T02:27:47;31.37;;;4.57;;
21128;SDS011;10722;51.910;8.352;2023-12-22T02:30:38;24.83;;;4.17;;
21128;SDS011;10722;51.910;8.352;2023-12-22T02:33:32;24.83;;;4.43;;
21128;SDS011;10722;51.910;8.352;2023-12-22T02:36:21;29.97;;;4.10;;
21128;SDS011;10722;51.910;8.352;2023-12-22T02:39:07;31.27;;;4.53;;
21128;SDS011;10722;51.910;8.352;2023-12-22T02:41:53;25.80;;;4.37;;
21128;SDS011;10722;51.910;8.352;2023-12-22T02:44:38;29.10;;;4.47;;
21128;SDS011;10722;51.910;8.352;2023-12-22T02:47:24;27.53;;;4.40;;
21128;SDS011;10722;51.910;8.352;2023-12-22T02:50:09;24.13;;;4.00;;
21128;SDS011;10722;51.910;8.352;2023-12-22T02:52:55;29.57;;;3.93;;
21128;SDS011;10722;51.910;8.352;2023-12-22T02:55:41;27.80;;;4.17;;
21128;SDS011;10722;51.910;8.352;2023-12-22T02:58:26;20.73;;;3.37;;
21128;SDS011;10722;51.910;8.352;2023-12-22T03:01:11;26.50;;;3.63;;
21128;SDS011;10722;51.910;8.352;2023-12-22T03:03:56;25.90;;;3.90;;
21128;SDS011;10722;51.910;8.352;2023-12-22T03:06:41;26.03;;;3.97;;
21128;SDS011;10722;51.910;8.352;2023-12-22T03:09:26;31.97;;;3.90;;
21128;SDS011;10722;51.910;8.352;2023-12-22T03:12:11;25.00;;;3.27;;
21128;SDS011;10722;51.910;8.352;2023-12-22T03:14:56;28.57;;;3.60;;
21128;SDS011;10722;51.910;8.352;2023-12-22T03:17:41;27.83;;;4.03;;
21128;SDS011;10722;51.910;8.352;2023-12-22T03:20:26;28.13;;;4.07;;
21128;SDS011;10722;51.910;8.352;2023-12-22T03:23:11;18.97;;;4.07;;
21128;SDS011;10722;51.910;8.352;2023-12-22T03:25:56;21.97;;;3.20;;
21128;SDS011;10722;51.910;8.352;2023-12-22T03:28:41;20.40;;;3.00;;
21128;SDS011;10722;51.910;8.352;2023-12-22T03:31:27;27.87;;;3.73;;
21128;SDS011;10722;51.910;8.352;2023-12-22T03:34:12;26.80;;;4.17;;
21128;SDS011;10722;51.910;8.352;2023-12-22T03:36:58;28.90;;;3.90;;
21128;SDS011;10722;51.910;8.352;2023-12-22T03:39:43;23.73;;;3.33;;
21128;SDS011;10722;51.910;8.352;2023-12-22T03:42:28;31.17;;;4.30;;
21128;SDS011;10722;51.910;8.352;2023-12-22T03:45:12;25.03;;;4.00;;
21128;SDS011;10722;51.910;8.352;2023-12-22T03:47:58;26.10;;;4.53;;
21128;SDS011;10722;51.910;8.352;2023-12-22T03:50:43;23.17;;;3.70;;
21128;SDS011;10722;51.910;8.352;2023-12-22T03:53:28;30.63;;;3.93;;
21128;SDS011;10722;51.910;8.352;2023-12-22T03:56:13;24.83;;;3.77;;
21128;SDS011;10722;51.910;8.352;2023-12-22T03:58:58;29.37;;;3.83;;
21128;SDS011;10722;51.910;8.352;2023-12-22T04:01:43;22.00;;;3.13;;
21128;SDS011;10722;51.910;8.352;2023-12-22T04:04:27;25.37;;;3.10;;
21128;SDS011;10722;51.910;8.352;2023-12-22T04:07:13;18.60;;;3.00;;
21128;SDS011;10722;51.910;8.352;2023-12-22T04:09:58;19.57;;;2.73;;
21128;SDS011;10722;51.910;8.352;2023-12-22T04:12:43;19.40;;;2.10;;
21128;SDS011;10722;51.910;8.352;2023-12-22T04:15:28;15.20;;;2.60;;
21128;SDS011;10722;51.910;8.352;2023-12-22T04:18:13;18.50;;;1.80;;
21128;SDS011;10722;51.910;8.352;2023-12-22T04:20:58;12.03;;;1.93;;
21128;SDS011;10722;51.910;8.352;2023-12-22T04:23:43;11.37;;;1.87;;
21128;SDS011;10722;51.910;8.352;2023-12-22T04:26:28;10.77;;;1.90;;
21128;SDS011;10722;51.910;8.352;2023-12-22T04:29:13;14.67;;;2.03;;
21128;SDS011;10722;51.910;8.352;2023-12-22T04:31:59;15.60;;;2.10;;
21128;SDS011;10722;51.910;8.352;2023-12-22T04:34:44;12.30;;;1.90;;
21128;SDS011;10722;51.910;8.352;2023-12-22T04:37:29;13.50;;;1.97;;
21128;SDS011;10722;51.910;8.352;2023-12-22T04:40:14;10.53;;;1.60;;
21128;SDS011;10722;51.910;8.352;2023-12-22T04:42:58;16.77;;;1.90;;
21128;SDS011;10722;51.910;8.352;2023-12-22T04:45:44;14.80;;;1.67;;
21128;SDS011;10722;51.910;8.352;2023-12-22T04:48:29;9.97;;;1.70;;
21128;SDS011;10722;51.910;8.352;2023-12-22T04:51:14;11.50;;;1.60;;
21128;SDS011;10722;51.910;8.352;2023-12-22T04:54:00;13.13;;;1.87;;
21128;SDS011;10722;51.910;8.352;2023-12-22T04:56:45;16.43;;;2.00;;
21128;SDS011;10722;51.910;8.352;2023-12-22T04:59:30;15.10;;;2.00;;
21128;SDS011;10722;51.910;8.352;2023-12-22T05:02:16;12.57;;;2.00;;
21128;SDS011;10722;51.910;8.352;2023-12-22T05:05:00;14.33;;;1.87;;
21128;SDS011;10722;51.910;8.352;2023-12-22T05:07:45;15.87;;;2.00;;
21128;SDS011;10722;51.910;8.352;2023-12-22T05:10:31;15.23;;;2.23;;
21128;SDS011;10722;51.910;8.352;2023-12-22T05:13:16;11.67;;;1.63;;
21128;SDS011;10722;51.910;8.352;2023-12-22T05:16:01;12.50;;;1.80;;
21128;SDS011;10722;51.910;8.352;2023-12-22T05:18:46;13.63;;;1.90;;
21128;SDS011;10722;51.910;8.352;2023-12-22T05:21:31;12.33;;;1.80;;
21128;SDS011;10722;51.910;8.352;2023-12-22T05:24:16;13.90;;;1.60;;
21128;SDS011;10722;51.910;8.352;2023-12-22T05:27:01;15.97;;;1.80;;
21128;SDS011;10722;51.910;8.352;2023-12-22T05:29:46;9.00;;;1.50;;
21128;SDS011;10722;51.910;8.352;2023-12-22T05:32:31;18.70;;;2.00;;
21128;SDS011;10722;51.910;8.352;2023-12-22T05:35:16;11.80;;;2.03;;
21128;SDS011;10722;51.910;8.352;2023-12-22T05:38:02;15.30;;;1.90;;
21128;SDS011;10722;51.910;8.352;2023-12-22T05:40:47;15.10;;;2.23;;
21128;SDS011;10722;51.910;8.352;2023-12-22T05:43:33;17.07;;;2.47;;
21128;SDS011;10722;51.910;8.352;2023-12-22T05:46:18;15.03;;;2.47;;
21128;SDS011;10722;51.910;8.352;2023-12-22T05:49:03;14.43;;;2.03;;
21128;SDS011;10722;51.910;8.352;2023-12-22T05:51:48;16.47;;;2.57;;
21128;SDS011;10722;51.910;8.352;2023-12-22T05:54:33;17.13;;;2.37;;
21128;SDS011;10722;51.910;8.352;2023-12-22T05:57:18;14.53;;;2.73;;
21128;SDS011;10722;51.910;8.352;2023-12-22T06:00:04;18.23;;;2.27;;
21128;SDS011;10722;51.910;8.352;2023-12-22T06:02:49;15.13;;;2.20;;
21128;SDS011;10722;51.910;8.352;2023-12-22T06:05:34;14.67;;;2.50;;
21128;SDS011;10722;51.910;8.352;2023-12-22T06:08:20;21.20;;;2.50;;
21128;SDS011;10722;51.910;8.352;2023-12-22T06:11:05;23.83;;;2.90;;
21128;SDS011;10722;51.910;8.352;2023-12-22T06:13:50;20.33;;;2.70;;
21128;SDS011;10722;51.910;8.352;2023-12-22T06:16:35;22.33;;;3.30;;
21128;SDS011;10722;51.910;8.352;2023-12-22T06:19:20;23.33;;;3.40;;
21128;SDS011;10722;51.910;8.352;2023-12-22T06:22:05;19.30;;;2.93;;
21128;SDS011;10722;51.910;8.352;2023-12-22T06:24:50;20.00;;;2.80;;
21128;SDS011;10722;51.910;8.352;2023-12-22T06:27:35;17.73;;;2.97;;
21128;SDS011;10722;51.910;8.352;2023-12-22T06:30:20;21.50;;;3.63;;
21128;SDS011;10722;51.910;8.352;2023-12-22T06:33:05;22.00;;;3.33;;
21128;SDS011;10722;51.910;8.352;2023-12-22T06:35:51;17.97;;;2.67;;
21128;SDS011;10722;51.910;8.352;2023-12-22T06:38:35;24.40;;;3.33;;
21128;SDS011;10722;51.910;8.352;2023-12-22T06:41:30;25.57;;;3.47;;
21128;SDS011;10722;51.910;8.352;2023-12-22T06:44:15;18.80;;;2.90;;
21128;SDS011;10722;51.910;8.352;2023-12-22T06:47:00;27.13;;;3.60;;
21128;SDS011;10722;51.910;8.352;2023-12-22T06:49:46;23.43;;;3.10;;
21128;SDS011;10722;51.910;8.352;2023-12-22T06:52:31;22.87;;;3.40;;
21128;SDS011;10722;51.910;8.352;2023-12-22T06:55:16;22.27;;;3.50;;
21128;SDS011;10722;51.910;8.352;2023-12-22T06:58:02;19.17;;;3.10;;
21128;SDS011;10722;51.910;8.352;2023-12-22T07:00:47;19.60;;;3.00;;
21128;SDS011;10722;51.910;8.352;2023-12-22T07:03:32;24.13;;;3.27;;
21128;SDS011;10722;51.910;8.352;2023-12-22T07:06:17;23.13;;;3.60;;
21128;SDS011;10722;51.910;8.352;2023-12-22T07:12:00;22.07;;;3.13;;
21128;SDS011;10722;51.910;8.352;2023-12-22T07:14:45;27.63;;;4.20;;
21128;SDS011;10722;51.910;8.352;2023-12-22T07:17:31;22.30;;;3.37;;
21128;SDS011;10722;51.910;8.352;2023-12-22T07:20:16;22.37;;;3.47;;
21128;SDS011;10722;51.910;8.352;2023-12-22T07:23:01;21.70;;;3.40;;
21128;SDS011;10722;51.910;8.352;2023-12-22T07:25:46;18.70;;;2.70;;
21128;SDS011;10722;51.910;8.352;2023-12-22T07:28:31;23.90;;;3.40;;
21128;SDS011;10722;51.910;8.352;2023-12-22T07:31:18;24.37;;;3.60;;
21128;SDS011;10722;51.910;8.352;2023-12-22T07:34:03;23.30;;;3.37;;
21128;SDS011;10722;51.910;8.352;2023-12-22T07:36:48;23.67;;;3.40;;
21128;SDS011;10722;51.910;8.352;2023-12-22T07:39:47;18.40;;;3.40;;
21128;SDS011;10722;51.910;8.352;2023-12-22T07:42:32;23.63;;;3.60;;
21128;SDS011;10722;51.910;8.352;2023-12-22T07:45:17;23.90;;;4.03;;
21128;SDS011;10722;51.910;8.352;2023-12-22T07:48:02;21.93;;;3.27;;
21128;SDS011;10722;51.910;8.352;2023-12-22T07:50:47;21.43;;;3.33;;
21128;SDS011;10722;51.910;8.352;2023-12-22T07:53:33;24.77;;;3.53;;
21128;SDS011;10722;51.910;8.352;2023-12-22T07:56:18;22.17;;;3.57;;
21128;SDS011;10722;51.910;8.352;2023-12-22T07:59:03;26.20;;;3.83;;
21128;SDS011;10722;51.910;8.352;2023-12-22T08:02:07;28.00;;;3.70;;
21128;SDS011;10722;51.910;8.352;2023-12-22T08:04:52;30.17;;;4.10;;
21128;SDS011;10722;51.910;8.352;2023-12-22T08:07:37;31.00;;;4.40;;
21128;SDS011;10722;51.910;8.352;2023-12-22T08:10:22;27.70;;;3.47;;
21128;SDS011;10722;51.910;8.352;2023-12-22T08:13:08;25.33;;;3.37;;
21128;SDS011;10722;51.910;8.352;2023-12-22T08:15:53;24.00;;;3.90;;
21128;SDS011;10722;51.910;8.352;2023-12-22T08:18:38;22.13;;;3.63;;
21128;SDS011;10722;51.910;8.352;2023-12-22T08:21:23;26.27;;;4.03;;
21128;SDS011;10722;51.910;8.352;2023-12-22T08:24:23;23.63;;;3.33;;
21128;SDS011;10722;51.910;8.352;2023-12-22T08:27:09;21.83;;;3.33;;
21128;SDS011;10722;51.910;8.352;2023-12-22T08:29:54;20.13;;;3.50;;
21128;SDS011;10722;51.910;8.352;2023-12-22T08:32:39;21.37;;;3.50;;
21128;SDS011;10722;51.910;8.352;2023-12-22T08:35:24;24.77;;;3.73;;
21128;SDS011;10722;51.910;8.352;2023-12-22T08:38:09;24.13;;;3.30;;
21128;SDS011;10722;51.910;8.352;2023-12-22T08:40:55;22.57;;;4.43;;
21128;SDS011;10722;51.910;8.352;2023-12-22T08:43:44;25.53;;;5.50;;
21128;SDS011;10722;51.910;8.352;2023-12-22T08:46:29;17.13;;;3.23;;
21128;SDS011;10722;51.910;8.352;2023-12-22T08:49:14;23.13;;;3.57;;
21128;SDS011;10722;51.910;8.352;2023-12-22T08:52:00;20.00;;;2.87;;
21128;SDS011;10722;51.910;8.352;2023-12-22T08:54:45;19.00;;;3.10;;
21128;SDS011;10722;51.910;8.352;2023-12-22T08:57:30;16.27;;;2.10;;
21128;SDS011;10722;51.910;8.352;2023-12-22T09:00:15;12.57;;;2.20;;
21128;SDS011;10722;51.910;8.352;2023-12-22T09:03:00;12.67;;;1.87;;
21128;SDS011;10722;51.910;8.352;2023-12-22T09:05:45;13.67;;;2.10;;
21128;SDS011;10722;51.910;8.352;2023-12-22T09:08:30;11.80;;;2.17;;
21128;SDS011;10722;51.910;8.352;2023-12-22T09:11:19;11.93;;;1.80;;
21128;SDS011;10722;51.910;8.352;2023-12-22T09:14:05;10.90;;;2.00;;
21128;SDS011;10722;51.910;8.352;2023-12-22T09:16:51;7.00;;;1.47;;
21128;SDS011;10722;51.910;8.352;2023-12-22T09:19:36;12.13;;;1.70;;
21128;SDS011;10722;51.910;8.352;2023-12-22T09:22:21;10.27;;;1.67;;
21128;SDS011;10722;51.910;8.352;2023-12-22T09:25:06;12.07;;;1.63;;
21128;SDS011;10722;51.910;8.352;2023-12-22T09:27:51;10.20;;;1.20;;
21128;SDS011;10722;51.910;8.352;2023-12-22T09:30:36;11.17;;;1.63;;
21128;SDS011;10722;51.910;8.352;2023-12-22T09:33:21;15.47;;;1.80;;
21128;SDS011;10722;51.910;8.352;2023-12-22T09:36:07;12.47;;;1.97;;
21128;SDS011;10722;51.910;8.352;2023-12-22T09:38:52;14.47;;;1.90;;
21128;SDS011;10722;51.910;8.352;2023-12-22T09:41:37;13.30;;;1.83;;
21128;SDS011;10722;51.910;8.352;2023-12-22T09:44:22;11.83;;;1.70;;
21128;SDS011;10722;51.910;8.352;2023-12-22T09:47:09;13.33;;;1.83;;
21128;SDS011;10722;51.910;8.352;2023-12-22T09:49:56;10.53;;;1.60;;
21128;SDS011;10722;51.910;8.352;2023-12-22T09:52:43;13.13;;;2.00;;
21128;SDS011;10722;51.910;8.352;2023-12-22T09:55:30;13.43;;;1.80;;
21128;SDS011;10722;51.910;8.352;2023-12-22T09:58:17;10.23;;;1.73;;
21128;SDS011;10722;51.910;8.352;2023-12-22T10:01:03;8.90;;;1.60;;
21128;SDS011;10722;51.910;8.352;2023-12-22T10:03:49;8.43;;;1.80;;
21128;SDS011;10722;51.910;8.352;2023-12-22T10:06:34;11.90;;;2.13;;
21128;SDS011;10722;51.910;8.352;2023-12-22T10:09:19;11.77;;;1.87;;
21128;SDS011;10722;51.910;8.352;2023-12-22T10:12:05;13.50;;;1.67;;
21128;SDS011;10722;51.910;8.352;2023-12-22T10:14:51;12.40;;;2.23;;
21128;SDS011;10722;51.910;8.352;2023-12-22T10:17:38;14.73;;;2.13;;
21128;SDS011;10722;51.910;8.352;2023-12-22T10:20:24;17.57;;;4.83;;
21128;SDS011;10722;51.910;8.352;2023-12-22T10:23:09;10.37;;;2.00;;
21128;SDS011;10722;51.910;8.352;2023-12-22T10:25:54;15.60;;;2.20;;
21128;SDS011;10722;51.910;8.352;2023-12-22T10:28:42;12.47;;;2.00;;
21128;SDS011;10722;51.910;8.352;2023-12-22T10:31:27;13.37;;;2.23;;
21128;SDS011;10722;51.910;8.352;2023-12-22T10:34:24;16.30;;;2.47;;
21128;SDS011;10722;51.910;8.352;2023-12-22T10:37:10;12.13;;;1.90;;
21128;SDS011;10722;51.910;8.352;2023-12-22T10:39:55;12.93;;;2.23;;
21128;SDS011;10722;51.910;8.352;2023-12-22T10:42:40;14.40;;;2.30;;
21128;SDS011;10722;51.910;8.352;2023-12-22T10:45:25;7.37;;;1.70;;
21128;SDS011;10722;51.910;8.352;2023-12-22T10:48:10;8.47;;;1.63;;
21128;SDS011;10722;51.910;8.352;2023-12-22T10:50:56;15.77;;;2.20;;
21128;SDS011;10722;51.910;8.352;2023-12-22T10:53:41;10.20;;;1.60;;
21128;SDS011;10722;51.910;8.352;2023-12-22T10:56:27;14.00;;;2.00;;
21128;SDS011;10722;51.910;8.352;2023-12-22T10:59:15;14.77;;;2.27;;
21128;SDS011;10722;51.910;8.352;2023-12-22T11:02:03;11.30;;;1.90;;
21128;SDS011;10722;51.910;8.352;2023-12-22T11:07:42;14.33;;;2.20;;
21128;SDS011;10722;51.910;8.352;2023-12-22T11:10:33;15.00;;;2.43;;
21128;SDS011;10722;51.910;8.352;2023-12-22T11:13:22;13.90;;;2.13;;
21128;SDS011;10722;51.910;8.352;2023-12-22T11:16:08;9.57;;;1.97;;
21128;SDS011;10722;51.910;8.352;2023-12-22T11:18:54;14.03;;;2.33;;
21128;SDS011;10722;51.910;8.352;2023-12-22T11:21:40;16.20;;;2.30;;
21128;SDS011;10722;51.910;8.352;2023-12-22T11:24:26;14.93;;;2.50;;
21128;SDS011;10722;51.910;8.352;2023-12-22T11:27:13;12.77;;;2.13;;
21128;SDS011;10722;51.910;8.352;2023-12-22T11:30:00;14.30;;;2.13;;
21128;SDS011;10722;51.910;8.352;2023-12-22T11:32:46;16.90;;;2.73;;
21128;SDS011;10722;51.910;8.352;2023-12-22T11:35:34;15.10;;;2.47;;
21128;SDS011;10722;51.910;8.352;2023-12-22T11:38:20;18.57;;;2.50;;
21128;SDS011;10722;51.910;8.352;2023-12-22T11:41:05;14.23;;;2.63;;
21128;SDS011;10722;51.910;8.352;2023-12-22T11:43:54;12.90;;;2.40;;
21128;SDS011;10722;51.910;8.352;2023-12-22T11:46:41;15.93;;;2.70;;
21128;SDS011;10722;51.910;8.352;2023-12-22T11:49:31;11.13;;;2.00;;
21128;SDS011;10722;51.910;8.352;2023-12-22T11:52:24;15.27;;;2.20;;
21128;SDS011;10722;51.910;8.352;2023-12-22T11:55:10;11.70;;;1.93;;
21128;SDS011;10722;51.910;8.352;2023-12-22T11:57:55;11.17;;;1.90;;
21128;SDS011;10722;51.910;8.352;2023-12-22T12:00:40;9.07;;;1.83;;
21128;SDS011;10722;51.910;8.352;2023-12-22T12:03:25;13.10;;;1.80;;
21128;SDS011;10722;51.910;8.352;2023-12-22T12:09:12;7.53;;;1.60;;
21128;SDS011;10722;51.910;8.352;2023-12-22T12:14:54;5.97;;;1.30;;
21128;SDS011;10722;51.910;8.352;2023-12-22T12:17:43;8.77;;;1.40;;
21128;SDS011;10722;51.910;8.352;2023-12-22T12:20:28;56.53;;;29.23;;
21128;SDS011;10722;51.910;8.352;2023-12-22T12:23:14;7.83;;;1.50;;
21128;SDS011;10722;51.910;8.352;2023-12-22T12:26:00;5.00;;;1.33;;
21128;SDS011;10722;51.910;8.352;2023-12-22T12:28:46;7.23;;;1.40;;
21128;SDS011;10722;51.910;8.352;2023-12-22T12:31:35;7.77;;;1.60;;
21128;SDS011;10722;51.910;8.352;2023-12-22T12:34:21;10.20;;;1.30;;
21128;SDS011;10722;51.910;8.352;2023-12-22T12:37:07;7.07;;;1.23;;
21128;SDS011;10722;51.910;8.352;2023-12-22T12:39:53;6.77;;;1.20;;
21128;SDS011;10722;51.910;8.352;2023-12-22T12:42:43;6.63;;;1.30;;
21128;SDS011;10722;51.910;8.352;2023-12-22T12:45:29;7.67;;;1.20;;
21128;SDS011;10722;51.910;8.352;2023-12-22T12:48:17;7.83;;;1.20;;
21128;SDS011;10722;51.910;8.352;2023-12-22T12:51:04;7.23;;;1.20;;
21128;SDS011;10722;51.910;8.352;2023-12-22T12:53:50;3.53;;;1.00;;
21128;SDS011;10722;51.910;8.352;2023-12-22T12:56:39;4.07;;;1.00;;
21128;SDS011;10722;51.910;8.352;2023-12-22T12:59:25;4.77;;;0.97;;
21128;SDS011;10722;51.910;8.352;2023-12-22T13:02:10;4.33;;;0.93;;
21128;SDS011;10722;51.910;8.352;2023-12-22T13:04:55;1.83;;;0.80;;
21128;SDS011;10722;51.910;8.352;2023-12-22T13:07:41;6.10;;;1.10;;
21128;SDS011;10722;51.910;8.352;2023-12-22T13:10:26;4.43;;;0.80;;
21128;SDS011;10722;51.910;8.352;2023-12-22T13:13:11;4.93;;;0.73;;
21128;SDS011;10722;51.910;8.352;2023-12-22T13:15:56;1.57;;;0.83;;
21128;SDS011;10722;51.910;8.352;2023-12-22T13:18:42;7.00;;;1.13;;
21128;SDS011;10722;51.910;8.352;2023-12-22T13:21:28;3.73;;;0.90;;
21128;SDS011;10722;51.910;8.352;2023-12-22T13:24:17;5.60;;;1.27;;
21128;SDS011;10722;51.910;8.352;2023-12-22T13:27:02;6.00;;;1.20;;
21128;SDS011;10722;51.910;8.352;2023-12-22T13:29:49;5.10;;;1.10;;
21128;SDS011;10722;51.910;8.352;2023-12-22T13:32:34;3.00;;;0.90;;
21128;SDS011;10722;51.910;8.352;2023-12-22T13:35:22;3.23;;;0.90;;
21128;SDS011;10722;51.910;8.352;2023-12-22T13:38:08;3.27;;;0.80;;
21128;SDS011;10722;51.910;8.352;2023-12-22T13:40:54;4.63;;;0.70;;
21128;SDS011;10722;51.910;8.352;2023-12-22T13:43:39;3.10;;;0.70;;
21128;SDS011;10722;51.910;8.352;2023-12-22T13:46:26;3.57;;;0.80;;
21128;SDS011;10722;51.910;8.352;2023-12-22T13:49:12;5.57;;;1.00;;
21128;SDS011;10722;51.910;8.352;2023-12-22T13:51:58;5.30;;;0.97;;
21128;SDS011;10722;51.910;8.352;2023-12-22T13:54:43;5.93;;;1.37;;
21128;SDS011;10722;51.910;8.352;2023-12-22T13:57:28;4.20;;;1.10;;
21128;SDS011;10722;51.910;8.352;2023-12-22T14:03:04;3.77;;;1.00;;
21128;SDS011;10722;51.910;8.352;2023-12-22T14:05:50;4.73;;;1.10;;
21128;SDS011;10722;51.910;8.352;2023-12-22T14:08:41;4.87;;;1.17;;
21128;SDS011;10722;51.910;8.352;2023-12-22T14:11:26;6.37;;;1.10;;
21128;SDS011;10722;51.910;8.352;2023-12-22T14:14:15;3.07;;;1.03;;
21128;SDS011;10722;51.910;8.352;2023-12-22T14:17:00;5.07;;;1.30;;
21128;SDS011;10722;51.910;8.352;2023-12-22T14:19:45;4.77;;;1.27;;
21128;SDS011;10722;51.910;8.352;2023-12-22T14:22:30;5.20;;;1.37;;
21128;SDS011;10722;51.910;8.352;2023-12-22T14:25:15;4.97;;;1.30;;
21128;SDS011;10722;51.910;8.352;2023-12-22T14:28:00;7.60;;;1.30;;
21128;SDS011;10722;51.910;8.352;2023-12-22T14:30:45;6.07;;;1.30;;
21128;SDS011;10722;51.910;8.352;2023-12-22T14:33:30;12.30;;;4.03;;
21128;SDS011;10722;51.910;8.352;2023-12-22T14:36:15;8.70;;;1.57;;
21128;SDS011;10722;51.910;8.352;2023-12-22T14:39:00;5.97;;;1.30;;
21128;SDS011;10722;51.910;8.352;2023-12-22T14:41:45;3.83;;;1.33;;
21128;SDS011;10722;51.910;8.352;2023-12-22T14:44:30;6.07;;;1.20;;
21128;SDS011;10722;51.910;8.352;2023-12-22T14:47:16;7.13;;;1.50;;
21128;SDS011;10722;51.910;8.352;2023-12-22T14:50:02;6.37;;;1.50;;
21128;SDS011;10722;51.910;8.352;2023-12-22T14:52:47;5.13;;;1.30;;
21128;SDS011;10722;51.910;8.352;2023-12-22T14:55:33;6.97;;;1.30;;
21128;SDS011;10722;51.910;8.352;2023-12-22T14:58:17;6.13;;;1.33;;
21128;SDS011;10722;51.910;8.352;2023-12-22T15:01:02;4.13;;;1.10;;
21128;SDS011;10722;51.910;8.352;2023-12-22T15:03:48;7.30;;;1.30;;
21128;SDS011;10722;51.910;8.352;2023-12-22T15:06:37;7.10;;;1.20;;
21128;SDS011;10722;51.910;8.352;2023-12-22T15:09:23;4.17;;;1.03;;
21128;SDS011;10722;51.910;8.352;2023-12-22T15:12:08;5.47;;;1.20;;
21128;SDS011;10722;51.910;8.352;2023-12-22T15:14:53;3.87;;;1.07;;
21128;SDS011;10722;51.910;8.352;2023-12-22T15:17:38;6.63;;;1.30;;
21128;SDS011;10722;51.910;8.352;2023-12-22T15:20:23;4.23;;;0.90;;
21128;SDS011;10722;51.910;8.352;2023-12-22T15:23:08;3.73;;;1.00;;
21128;SDS011;10722;51.910;8.352;2023-12-22T15:25:53;4.93;;;1.00;;
21128;SDS011;10722;51.910;8.352;2023-12-22T15:28:38;4.33;;;1.17;;
21128;SDS011;10722;51.910;8.352;2023-12-22T15:31:23;7.00;;;0.83;;
21128;SDS011;10722;51.910;8.352;2023-12-22T15:34:08;4.07;;;0.93;;
21128;SDS011;10722;51.910;8.352;2023-12-22T15:36:53;3.20;;;0.90;;
21128;SDS011;10722;51.910;8.352;2023-12-22T15:39:38;4.83;;;1.03;;
21128;SDS011;10722;51.910;8.352;2023-12-22T15:42:23;2.37;;;0.63;;
21128;SDS011;10722;51.910;8.352;2023-12-22T15:45:09;2.90;;;0.90;;
21128;SDS011;10722;51.910;8.352;2023-12-22T15:47:55;4.47;;;1.10;;
21128;SDS011;10722;51.910;8.352;2023-12-22T15:50:40;6.47;;;1.20;;
21128;SDS011;10722;51.910;8.352;2023-12-22T15:53:25;4.53;;;1.20;;
21128;SDS011;10722;51.910;8.352;2023-12-22T15:56:10;4.23;;;1.17;;
21128;SDS011;10722;51.910;8.352;2023-12-22T15:58:56;4.23;;;0.97;;
21128;SDS011;10722;51.910;8.352;2023-12-22T16:01:44;6.27;;;1.00;;
21128;SDS011;10722;51.910;8.352;2023-12-22T16:04:29;5.53;;;1.07;;
21128;SDS011;10722;51.910;8.352;2023-12-22T16:07:14;4.77;;;0.93;;
21128;SDS011;10722;51.910;8.352;2023-12-22T16:10:00;5.97;;;1.03;;
21128;SDS011;10722;51.910;8.352;2023-12-22T16:12:45;4.90;;;1.17;;
21128;SDS011;10722;51.910;8.352;2023-12-22T16:15:30;5.37;;;0.83;;
21128;SDS011;10722;51.910;8.352;2023-12-22T16:18:15;6.67;;;1.03;;
21128;SDS011;10722;51.910;8.352;2023-12-22T16:21:00;6.97;;;1.40;;
21128;SDS011;10722;51.910;8.352;2023-12-22T16:23:45;3.70;;;0.80;;
21128;SDS011;10722;51.910;8.352;2023-12-22T16:26:30;3.50;;;0.90;;
21128;SDS011;10722;51.910;8.352;2023-12-22T16:29:15;5.13;;;0.97;;
21128;SDS011;10722;51.910;8.352;2023-12-22T16:32:00;4.03;;;1.07;;
21128;SDS011;10722;51.910;8.352;2023-12-22T16:34:45;5.40;;;0.93;;
21128;SDS011;10722;51.910;8.352;2023-12-22T16:37:30;4.03;;;1.30;;
21128;SDS011;10722;51.910;8.352;2023-12-22T16:40:15;6.23;;;1.57;;
21128;SDS011;10722;51.910;8.352;2023-12-22T16:43:00;3.77;;;0.97;;
21128;SDS011;10722;51.910;8.352;2023-12-22T16:45:45;5.40;;;1.13;;